Latest Weather Observations for Tarcoola

IDS60801

Issued at 10:31 am CDT Thursday 21 November 2019 (issued every 10 minutes, with the page automatically refreshed every 10 minutes)

About weather observations | Map of weather stations | Latest weather observations for SA | Other Formats
Station Details ID: 016098 Name: TARCOOLA AERO Lat: -30.71 Lon: 134.58 Height: 123.0 m
Data from the previous 72 hours. | See also: Recent months at Tarcoola
Date/Time
CDT
Temp
°C
App
Temp
°C
Dew
Point
°C
Rel
Hum
%
Delta-T
°C
Wind Press
QNH
hPa
Press
MSL
hPa
Rain since
9am
mm
Dir  Spd
km/h
Gust
km/h
Spd
kts
Gust
kts
21/10:30am 19.4 13.2 7.8 47 6.0 SW 30 41 16 22 1014.9 1014.4 0.0
21/10:00am 19.6 14.6 8.0 47 6.0 SW 24 32 13 17 1014.9 1014.4 0.0
21/09:30am 19.6 12.7 8.9 50 5.6 SW 35 46 19 25 1013.6 1013.0 0.0
21/09:00am 18.5 12.9 8.7 53 5.1 SW 28 37 15 20 1013.8 1013.2 0.0
21/08:30am 18.8 12.9 9.0 53 5.2 SW 30 43 16 23 1014.1 1013.5 0.0
21/08:00am 18.9 13.8 10.5 58 4.5 SW 28 37 15 20 1013.2 1012.6 0.0
21/07:30am 17.6 13.2 10.5 63 3.8 SW 24 33 13 18 1013.0 1012.4 0.0
21/07:00am 17.1 12.0 10.5 65 3.5 SW 28 43 15 23 1012.2 1011.6 0.0
21/06:30am 16.9 11.8 10.5 66 3.4 SW 28 37 15 20 1012.2 1011.6 0.0
21/06:03am 17.2 10.6 10.1 63 3.8 SW 35 54 19 29 1011.4 1010.9 0.0
21/06:00am 17.2 9.9 10.3 64 3.7 SW 39 54 21 29 1011.3 1010.8 0.0
21/05:53am 17.2 10.7 10.3 64 3.7 SW 35 54 19 29 1011.0 1010.5 0.0
21/05:30am 17.2 11.4 10.8 66 3.5 SW 32 46 17 25 1010.6 1010.1 0.0
21/05:00am 17.4 10.4 11.2 67 3.4 SW 39 50 21 27 1009.7 1009.2 0.0
21/04:31am 17.7 11.5 11.5 67 3.4 SW 35 54 19 29 1009.1 1008.6 0.0
21/04:30am 17.8 11.3 11.6 67 3.4 SW 37 54 20 29 1009.0 1008.5 0.0
21/04:23am 17.9 11.7 11.5 66 3.5 SW 35 54 19 29 1009.2 1008.7 0.0
21/04:00am 18.0 11.0 11.3 65 3.7 SW 39 50 21 27 1008.6 1008.1 0.0
21/03:30am 18.0 12.3 11.3 65 3.7 SW 32 48 17 26 1008.1 1007.6 0.0
21/03:01am 18.1 9.9 11.7 66 3.5 SW 46 65 25 35 1007.4 1006.8 0.0
21/03:00am 18.1 9.9 11.7 66 3.5 SW 46 63 25 34 1007.3 1006.7 0.0
21/02:30am 18.6 10.5 11.9 65 3.7 SW 46 65 25 35 1007.4 1006.8 0.0
21/02:11am 19.2 12.3 12.9 67 3.6 SW 41 59 22 32 1007.0 1006.4 0.0
21/02:00am 19.4 12.5 12.7 65 3.8 WSW 41 56 22 30 1007.1 1006.5 0.0
21/01:32am 19.9 15.1 12.9 64 4.0 SW 30 48 16 26 1006.1 1005.5 0.0
21/01:30am 19.9 15.1 12.9 64 4.0 SW 30 43 16 23 1005.7 1005.1 0.0
21/01:00am 19.8 14.8 13.3 66 3.7 SW 32 43 17 23 1006.0 1005.4 0.0
21/12:30am 20.3 14.3 13.3 64 4.0 SW 37 52 20 28 1005.5 1004.9 0.0
21/12:19am 20.6 15.1 13.6 64 4.0 SW 35 54 19 29 1005.4 1004.8 0.0
21/12:00am 21.2 14.5 13.4 61 4.5 SW 41 57 22 31 1004.9 1004.3 0.0
 
Date/Time
CDT
Temp
°C
App
Temp
°C
Dew
Point
°C
Rel
Hum
%
Delta-T
°C
Wind Press
QNH
hPa
Press
MSL
hPa
Rain since
9am
mm
Dir  Spd
km/h
Gust
km/h
Spd
kts
Gust
kts
20/11:30pm 23.2 15.1 12.2 50 6.3 WSW 46 65 25 35 1003.8 1003.2 0.0
20/11:25pm 25.3 17.7 10.4 39 8.3 WSW 41 61 22 33 1003.2 1002.7 0.0
20/11:18pm 30.4 23.7 5.6 21 13.1 W 30 61 16 33 1002.6 1002.1 0.0
20/11:14pm 33.9 27.5 -2.0 10 17.1 NW 22 50 12 27 1002.2 1001.7 0.0
20/11:00pm 35.6 28.0 -9.8 5 19.3 NNE 24 30 13 16 1000.5 1000.0 0.0
20/10:30pm 36.1 28.9 -9.4 5 19.7 NNE 22 32 12 17 1000.4 999.9 0.0
20/10:00pm 36.5 29.3 -9.2 5 19.8 NNE 22 30 12 16 1000.4 999.9 0.0
20/09:30pm 36.7 29.9 -9.0 5 20.0 NE 20 28 11 15 1000.6 1000.1 0.0
20/09:00pm 37.2 30.4 -8.7 5 20.2 NNE 20 24 11 13 1000.8 1000.3 0.0
20/08:30pm 38.5 31.2 -10.6 4 21.2 NNE 22 30 12 16 1000.9 1000.4 0.0
20/08:00pm 39.9 31.9 -9.7 4 21.9 N 26 35 14 19 1001.0 1000.5 0.0
20/07:30pm 41.1 31.6 -12.5 3 23.0 N 33 46 18 25 1000.9 1000.4 0.0
20/07:00pm 41.8 32.0 -12.0 3 23.3 N 35 48 19 26 1000.9 1000.4 0.0
20/06:47pm 42.0 32.2 -11.9 3 23.4 N 35 54 19 29 1000.8 1000.3 0.0
20/06:30pm 42.1 32.8 -11.8 3 23.6 N 32 48 17 26 1000.9 1000.4 0.0
20/06:03pm 42.7 32.9 -11.4 3 23.8 N 35 54 19 29 1000.9 1000.4 0.0
20/06:00pm 42.6 32.4 -11.5 3 23.9 N 37 50 20 27 1000.9 1000.4 0.0
20/05:40pm 43.1 33.3 -11.2 3 24.0 N 35 54 19 29 1001.0 1000.5 0.0
20/05:30pm 43.3 33.5 -11.0 3 24.2 N 35 52 19 28 1000.9 1000.4 0.0
20/05:00pm 43.3 33.1 -11.0 3 24.1 N 37 59 20 32 1001.3 1000.8 0.0
20/04:33pm 43.3 33.1 -11.0 3 24.1 N 37 57 20 31 1001.6 1001.1 0.0
20/04:30pm 43.0 32.7 -7.6 4 23.7 N 39 52 21 28 1001.6 1001.1 0.0
20/04:00pm 43.2 32.9 -7.4 4 23.7 N 39 57 21 31 1002.1 1001.6 0.0
20/03:30pm 43.4 33.2 -7.3 4 23.9 N 39 57 21 31 1002.7 1002.2 0.0
20/03:00pm 43.0 32.4 -7.6 4 23.7 N 41 61 22 33 1003.2 1002.7 0.0
20/02:30pm 42.9 31.7 -7.6 4 23.6 N 44 63 24 34 1003.9 1003.3 0.0
20/02:00pm 42.8 31.8 -7.7 4 23.5 NNE 43 65 23 35 1004.4 1003.8 0.0
20/01:32pm 42.4 31.1 -8.0 4 23.2 N 44 65 24 35 1004.9 1004.3 0.0
20/01:30pm 41.6 30.3 -8.5 4 22.9 N 44 59 24 32 1005.0 1004.4 0.0
20/01:00pm 41.9 29.9 -8.3 4 23.0 N 48 74 26 40 1005.5 1004.9 0.0
20/12:36pm 41.4 28.9 -8.7 4 22.7 N 50 70 27 38 1005.8 1005.2 0.0
20/12:30pm 41.2 28.7 -8.8 4 22.7 N 50 65 27 35 1006.0 1005.4 0.0
20/12:00pm 40.8 29.1 -9.1 4 22.4 N 46 69 25 37 1006.5 1005.9 0.0
20/11:30am 40.5 28.3 -6.4 5 21.9 N 50 69 27 37 1007.0 1006.4 0.0
20/11:00am 40.1 27.8 -6.7 5 21.6 N 50 69 27 37 1007.4 1006.8 0.0
20/10:30am 38.9 27.9 -7.5 5 21.1 N 43 63 23 34 1007.6 1007.1 0.0
20/10:15am 37.6 26.5 -6.0 6 20.0 N 44 63 24 34 1007.8 1007.3 0.0
20/10:00am 37.7 27.6 -6.0 6 20.1 N 39 50 21 27 1007.9 1007.4 0.0
20/09:33am 36.7 27.8 -6.7 6 19.6 N 32 50 17 27 1008.2 1007.7 0.0
20/09:30am 36.2 27.1 -7.0 6 19.4 N 33 50 18 27 1008.2 1007.7 0.0
20/09:00am 34.4 25.4 -6.3 7 18.2 NNE 33 43 18 23 1008.2 1007.7 0.0
20/08:30am 33.5 25.9 -5.2 8 17.5 N 26 37 14 20 1008.3 1007.8 0.0
20/08:00am 31.5 24.7 -5.2 9 16.3 NNE 22 32 12 17 1008.1 1007.6 0.0
20/07:30am 29.1 22.5 -7.0 9 15.3 NNE 20 28 11 15 1008.0 1007.5 0.0
20/07:00am 27.2 21.2 -7.0 10 14.2 NNE 17 24 9 13 1008.0 1007.5 0.0
20/06:30am 24.8 19.2 -6.5 12 12.8 NNE 15 19 8 10 1007.9 1007.4 0.0
20/06:00am 25.9 20.3 -6.8 11 13.5 NNE 15 19 8 10 1007.9 1007.4 0.0
20/05:30am 26.9 21.2 -7.2 10 14.1 NNE 15 20 8 11 1007.8 1007.3 0.0
20/05:00am 26.8 21.1 -7.3 10 14.0 NNE 15 17 8 9 1007.8 1007.3 0.0
20/04:30am 26.9 21.2 -7.2 10 14.1 NNE 15 17 8 9 1007.8 1007.3 0.0
20/04:00am 28.1 22.5 -6.3 10 14.6 NNE 15 20 8 11 1007.8 1007.3 0.0
20/03:30am 27.8 22.1 -7.9 9 14.7 NNE 15 19 8 10 1007.7 1007.2 0.0
20/03:00am 28.7 22.6 -7.3 9 15.1 NNE 17 20 9 11 1007.9 1007.4 0.0
20/02:30am 28.9 23.2 -7.1 9 15.2 NNE 15 19 8 10 1008.3 1007.8 0.0
20/02:00am 29.2 23.2 -6.9 9 15.3 NE 17 20 9 11 1008.6 1008.1 0.0
20/01:30am 26.4 21.1 -7.6 10 13.9 NNE 13 15 7 8 1009.0 1008.5 0.0
20/01:00am 27.2 21.9 -7.0 10 14.2 NNE 13 15 7 8 1009.4 1008.9 0.0
20/12:30am 28.7 23.1 -5.9 10 14.8 NNE 15 17 8 9 1009.7 1009.2 0.0
20/12:00am 29.5 23.9 -6.7 9 15.4 NNE 15 17 8 9 1009.7 1009.2 0.0
 
Date/Time
CDT
Temp
°C
App
Temp
°C
Dew
Point
°C
Rel
Hum
%
Delta-T
°C
Wind Press
QNH
hPa
Press
MSL
hPa
Rain since
9am
mm
Dir  Spd
km/h
Gust
km/h
Spd
kts
Gust
kts
19/11:30pm 29.9 24.3 -6.4 9 15.6 NNE 15 17 8 9 1009.9 1009.4 0.0
19/11:00pm 30.3 24.7 -6.1 9 15.8 NNE 15 15 8 8 1010.1 1009.6 0.0
19/10:30pm 31.0 25.9 -5.5 9 16.1 NNE 13 15 7 8 1009.9 1009.4 0.0
19/10:00pm 31.9 26.8 -4.9 9 16.5 NNE 13 13 7 7 1009.8 1009.3 0.0
19/09:30pm 32.9 27.7 -5.7 8 17.2 NNE 13 15 7 8 1009.6 1009.1 0.0
19/09:00pm 35.2 29.9 -4.0 8 18.3 NNE 15 17 8 9 1009.4 1008.9 0.0
19/08:30pm 37.2 31.8 -4.3 7 19.5 NNE 15 20 8 11 1009.2 1008.7 0.0
19/08:00pm 39.0 33.2 -5.1 6 20.7 NNE 17 22 9 12 1009.1 1008.6 0.0
19/07:30pm 40.4 34.3 -4.1 6 21.5 N 19 28 10 15 1008.9 1008.4 0.0
19/07:00pm 41.0 35.3 -3.6 6 21.7 NNE 17 24 9 13 1008.7 1008.2 0.0
19/06:30pm 41.7 36.5 -3.1 6 22.1 NNE 15 24 8 13 1008.6 1008.1 0.0
19/06:00pm 42.2 36.0 -2.8 6 22.4 NNE 20 32 11 17 1008.6 1008.1 0.0
19/05:30pm 41.8 36.2 -3.1 6 22.2 NNE 17 26 9 14 1008.7 1008.2 0.0
19/05:00pm 42.4 36.0 -5.1 5 22.9 N 20 28 11 15 1008.9 1008.4 0.0
19/04:30pm 42.7 36.9 -4.9 5 23.1 N 17 28 9 15 1009.0 1008.5 0.0
19/04:00pm 41.8 35.5 -5.5 5 22.5 N 19 28 10 15 1009.4 1008.9 0.0
19/03:30pm 42.2 36.3 -5.2 5 22.8 N 17 30 9 16 1009.7 1009.2 0.0
19/03:00pm 42.1 36.2 -5.3 5 22.7 N 17 26 9 14 1010.2 1009.7 0.0
19/02:30pm 40.9 34.3 -3.7 6 21.7 N 22 35 12 19 1010.8 1010.3 0.0
19/02:00pm 39.8 34.4 -4.5 6 21.1 N 15 26 8 14 1011.3 1010.8 0.0
19/01:30pm 40.3 34.6 -4.1 6 21.4 N 17 28 9 15 1011.7 1011.2 0.0
19/01:00pm 40.4 33.3 -4.1 6 21.5 N 24 37 13 20 1012.3 1011.7 0.0
19/12:30pm 39.2 32.4 -4.9 6 20.8 N 22 33 12 18 1012.5 1011.9 0.0
19/12:00pm 38.1 31.2 -5.7 6 20.3 N 22 33 12 18 1013.0 1012.4 0.0
19/11:30am 38.0 31.1 -5.8 6 20.2 NNW 22 30 12 16 1013.2 1012.6 0.0
19/11:00am 37.0 29.9 -4.4 7 19.4 N 24 32 13 17 1013.4 1012.8 0.0
19/10:30am 36.3 29.1 -5.0 7 19.1 N 24 33 13 18 1013.4 1012.8 0.0
19/10:00am 34.7 26.8 -4.4 8 18.0 NNW 28 33 15 18 1013.5 1012.9 0.0
19/09:30am 33.2 26.4 -5.5 8 17.3 N 22 30 12 16 1013.6 1013.0 0.0
19/09:00am 31.4 23.8 -5.2 9 16.2 N 26 33 14 18 1013.5 1012.9 0.0
19/08:30am 29.6 22.0 -5.2 10 15.2 N 26 32 14 17 1013.4 1012.8 0.0
19/08:00am 27.3 21.0 -5.7 11 14.0 N 19 24 10 13 1013.6 1013.0 0.0
19/07:30am 25.9 20.4 -5.6 12 13.2 N 15 20 8 11 1013.5 1012.9 0.0
19/07:00am 21.7 17.2 -6.9 14 11.3 NE 9 11 5 6 1013.4 1012.8 0.0
19/06:30am 20.2 15.2 -8.1 14 10.7 NNE 11 11 6 6 1013.1 1012.5 0.0
19/06:00am 20.4 15.4 -8.0 14 10.8 NE 11 11 6 6 1012.9 1012.3 0.0
19/05:30am 20.5 15.5 -7.9 14 10.8 NNE 11 15 6 8 1012.6 1012.0 0.0
19/05:00am 21.6 15.9 -8.0 13 11.4 NE 15 15 8 8 1012.6 1012.0 0.0
19/04:30am 21.6 16.2 -8.0 13 11.4 NE 13 15 7 8 1012.7 1012.1 0.0
19/04:00am 21.8 16.4 -8.8 12 11.6 NNE 13 13 7 7 1012.6 1012.0 0.0
19/03:30am 22.1 16.8 -7.6 13 11.6 NNE 13 13 7 7 1012.6 1012.0 0.0
19/03:00am 22.0 16.7 -7.6 13 11.5 NNE 13 15 7 8 1012.6 1012.0 0.0
19/02:30am 21.6 16.6 -8.0 13 11.4 NNE 11 13 6 7 1012.9 1012.3 0.0
19/02:00am 22.5 17.9 -8.3 12 11.9 NE 9 11 5 6 1013.3 1012.7 0.0
19/01:30am 23.1 18.9 -7.8 12 12.1 NE 7 9 4 5 1013.6 1013.0 0.0
19/01:00am 23.3 19.1 -7.7 12 12.2 NNE 7 9 4 5 1013.9 1013.3 0.0
19/12:30am 23.7 19.6 -8.5 11 12.5 NE 6 9 3 5 1014.1 1013.5 0.0
19/12:00am 24.7 20.1 -7.7 11 12.9 NE 9 9 5 5 1014.2 1013.6 0.0
 
Date/Time
CDT
Temp
°C
App
Temp
°C
Dew
Point
°C
Rel
Hum
%
Delta-T
°C
Wind Press
QNH
hPa
Press
MSL
hPa
Rain since
9am
mm
Dir  Spd
km/h
Gust
km/h
Spd
kts
Gust
kts
18/11:30pm 25.3 20.7 -8.5 10 13.4 NE 9 9 5 5 1014.2 1013.6 0.0
18/11:00pm 26.7 22.1 -7.4 10 14.0 NE 9 11 5 6 1014.3 1013.7 0.0
18/10:30pm 27.2 23.1 -7.0 10 14.2 NE 7 9 4 5 1014.4 1013.8 0.0
18/10:00pm 29.1 25.0 -7.0 9 15.2 NE 7 9 4 5 1014.3 1013.7 0.0
18/09:30pm 30.5 25.7 -5.9 9 15.8 NNE 11 11 6 6 1014.2 1013.6 0.0
18/09:00pm 31.3 26.6 -5.3 9 16.2 NNE 11 13 6 7 1013.9 1013.3 0.0
18/08:30pm 33.2 28.5 -5.5 8 17.3 N 11 13 6 7 1013.8 1013.2 0.0
18/08:00pm 35.6 31.6 -5.5 7 18.7 NNE 7 9 4 5 1013.5 1012.9 0.0
18/07:30pm 37.5 34.0 -6.1 6 20.0 N 4 7 2 4 1013.4 1012.8 0.0
18/07:00pm 38.1 34.1 -5.7 6 20.3 WSW 7 11 4 6 1013.2 1012.6 0.0
18/06:30pm 38.4 34.6 -5.5 6 20.4 S 6 9 3 5 1013.2 1012.6 0.0
18/06:00pm 37.7 33.3 -6.0 6 20.1 NNE 9 13 5 7 1013.5 1012.9 0.0
18/05:30pm 38.3 33.6 -5.5 6 20.4 ENE 11 17 6 9 1013.6 1013.0 0.0
18/05:00pm 37.6 32.8 -6.0 6 20.0 WNW 11 19 6 10 1013.9 1013.3 0.0
18/04:30pm 37.8 33.8 -5.9 6 20.1 WNW 7 19 4 10 1014.2 1013.6 0.0
18/04:00pm 37.9 32.7 -5.8 6 20.2 NNW 13 22 7 12 1014.6 1014.0 0.0
18/03:30pm 38.0 33.6 -5.8 6 20.2 NNW 9 20 5 11 1014.9 1014.4 0.0
18/03:00pm 37.5 33.3 -4.1 7 19.7 W 9 17 5 9 1015.4 1014.9 0.0
18/02:30pm 36.3 32.4 -5.0 7 19.1 WNW 7 13 4 7 1015.9 1015.4 0.0
18/02:00pm 36.2 30.4 -5.0 7 19.0 N 17 26 9 14 1016.3 1015.8 0.0
18/01:30pm 36.6 31.9 -4.7 7 19.2 NNE 11 24 6 13 1016.8 1016.3 0.0
18/01:00pm 35.7 29.8 -5.4 7 18.8 NNW 17 35 9 19 1017.1 1016.6 0.0
18/12:30pm 34.3 28.1 -4.6 8 17.8 NNW 19 32 10 17 1017.3 1016.8 0.0
18/12:00pm 33.0 27.1 -5.6 8 17.2 N 17 26 9 14 1017.4 1016.9 0.0
18/11:30am 33.7 26.5 -5.1 8 17.5 NNE 24 33 13 18 1017.6 1017.1 0.0
18/11:00am 32.1 25.0 -4.7 9 16.6 NNE 24 33 13 18 1018.0 1017.5 0.0

Other formats

Comma delimited format used in spreadsheet applications
http://www.bom.gov.au/fwo/IDS60801/IDS60801.94655.axf

JavaScript Object Notation format (JSON) in row-major order
http://www.bom.gov.au/fwo/IDS60801/IDS60801.94655.json

Data quality

Most of these data are generated automatically and are frequently updated. Quality checks on data are not normally performed. It is possible for incorrect values to appear. Refer to information at About Latest Weather Observations and please check the disclaimer before using these data.